Cerro Blanco, Chile
Current Conditions -  °F | °C
As of 5:00 AM on Sunday 26 Oct 2014 (Local Time) from SCSE Reporting Station
NA  
Wind Chill: 57°   Ceiling: NA
Heat Index: 57°   Visibility: NA
Dew Point: 54°   Wind: 1mph
Humidity: 88%   Direction: 170°S
Pressure: 30"   Gusts: NA
Location:  30.07°S, 71.12°W
Report Text: SCSE 260900Z AUTO 17001KT //// // ////// 14/12 Q1016
Loading
Personal Weather Stations






























Interactive Weather Map
Tropical Storm Tracking
New forecast layout! Learn more

10-Day Weather Forecast

Advertisements
Track Severe Weather on mobile